createdAt,value
2023-03-10T00:00:18.519Z,93.83
2023-03-10T00:01:18.519Z,93.52
2023-03-10T00:02:18.498Z,94.04
2023-03-10T00:03:18.509Z,94.10
2023-03-10T00:04:18.535Z,93.79
2023-03-10T00:05:18.608Z,94.34
2023-03-10T00:06:18.443Z,94.04
2023-03-10T00:07:18.443Z,94.45
2023-03-10T00:08:18.447Z,94.65
2023-03-10T00:09:18.431Z,94.96
2023-03-10T00:10:18.413Z,95.89
2023-03-10T00:11:18.419Z,94.81
2023-03-10T00:12:18.398Z,95.98
2023-03-10T00:13:18.385Z,95.98
2023-03-10T00:14:18.367Z,96.40
2023-03-10T00:15:18.416Z,96.09
2023-03-10T00:16:18.464Z,96.30
2023-03-10T00:17:18.334Z,96.60
2023-03-10T00:18:18.326Z,96.70
2023-03-10T00:19:18.316Z,97.53
2023-03-10T00:20:18.289Z,97.42
2023-03-10T00:21:18.286Z,97.63
2023-03-10T00:22:18.270Z,97.53
2023-03-10T00:23:18.283Z,97.53
2023-03-10T00:24:18.245Z,97.83
2023-03-10T00:25:18.253Z,97.83
2023-03-10T00:26:18.225Z,97.94
2023-03-10T00:27:19.214Z,97.94
2023-03-10T00:28:18.206Z,97.88
2023-03-10T00:29:18.200Z,98.19
2023-03-10T00:30:18.200Z,98.19
2023-03-10T00:31:18.277Z,98.50
2023-03-10T00:32:18.218Z,98.08
2023-03-10T00:33:18.164Z,98.29
2023-03-10T00:34:18.138Z,97.99
2023-03-10T00:35:18.132Z,98.08
2023-03-10T00:36:18.124Z,97.83
2023-03-10T00:37:18.100Z,98.29
2023-03-10T00:38:18.103Z,98.39
2023-03-10T00:39:19.083Z,98.45
2023-03-10T00:40:18.085Z,98.29
2023-03-10T00:41:18.068Z,98.29
2023-03-10T00:42:18.065Z,98.29
2023-03-10T00:43:18.045Z,98.19
2023-03-10T00:44:18.036Z,97.88
2023-03-10T00:45:19.025Z,98.08
2023-03-10T00:46:18.066Z,98.45
2023-03-10T00:47:17.996Z,98.35
2023-03-10T00:48:18.000Z,98.50
2023-03-10T00:49:17.980Z,98.25
2023-03-10T00:50:17.972Z,98.35
2023-03-10T00:51:17.974Z,98.14
2023-03-10T00:52:17.944Z,98.25
2023-03-10T00:53:17.932Z,98.35
2023-03-10T00:54:17.940Z,98.14
2023-03-10T00:55:17.924Z,98.86
2023-03-10T00:56:17.909Z,98.35
2023-03-10T00:57:17.887Z,98.35
2023-03-10T00:58:17.876Z,98.45
2023-03-10T00:59:17.915Z,98.55
2023-03-10T01:00:17.862Z,98.60
2023-03-10T01:01:17.901Z,98.14
2023-03-10T01:02:17.835Z,97.94
2023-03-10T01:03:17.827Z,97.73
2023-03-10T01:04:17.930Z,97.83
2023-03-10T01:05:17.822Z,97.83
2023-03-10T01:06:17.790Z,97.73
2023-03-10T01:07:17.778Z,97.48
2023-03-10T01:08:17.777Z,97.69
2023-03-10T01:09:17.769Z,97.83
2023-03-10T01:10:17.760Z,97.99
2023-03-10T01:11:17.739Z,97.94
2023-03-10T01:12:17.731Z,98.25
2023-03-10T01:13:17.721Z,98.25
2023-03-10T01:14:17.719Z,98.45
2023-03-10T01:15:17.676Z,97.63
2023-03-10T01:16:17.769Z,97.83
2023-03-10T01:17:17.664Z,97.63
2023-03-10T01:18:17.672Z,98.04
2023-03-10T01:19:17.664Z,98.25
2023-03-10T01:20:17.648Z,97.79
2023-03-10T01:21:17.615Z,98.04
2023-03-10T01:22:17.613Z,97.79
2023-03-10T01:23:17.612Z,98.20
2023-03-10T01:24:17.604Z,98.35
2023-03-10T01:25:17.614Z,98.25
2023-03-10T01:26:18.734Z,98.20
2023-03-10T01:27:18.566Z,98.30
2023-03-10T01:28:17.530Z,98.04
2023-03-10T01:29:18.546Z,97.63
2023-03-10T01:30:17.521Z,97.73
2023-03-10T01:31:17.670Z,97.28
2023-03-10T01:32:17.518Z,97.22
2023-03-10T01:33:17.538Z,97.32
2023-03-10T01:34:17.525Z,97.12
2023-03-10T01:35:17.496Z,97.22
2023-03-10T01:36:17.498Z,97.42
2023-03-10T01:37:17.446Z,97.32
2023-03-10T01:38:17.441Z,97.32
2023-03-10T01:39:17.456Z,96.56
2023-03-10T01:40:17.429Z,96.77
2023-03-10T01:41:17.410Z,96.30
2023-03-10T01:42:17.399Z,96.25
2023-03-10T01:43:17.380Z,96.04
2023-03-10T01:44:17.375Z,95.43
2023-03-10T01:45:17.359Z,95.23
2023-03-10T01:46:17.360Z,95.94
2023-03-10T01:47:17.344Z,95.84
2023-03-10T01:48:17.366Z,95.64
2023-03-10T01:49:17.301Z,95.74
2023-03-10T01:50:17.298Z,94.92
2023-03-10T01:51:17.290Z,95.32
2023-03-10T01:52:17.276Z,95.32
2023-03-10T01:53:17.275Z,95.59
2023-03-10T01:54:17.266Z,95.23
2023-03-10T01:55:17.252Z,95.43
2023-03-10T01:56:17.230Z,95.84
2023-03-10T01:57:17.228Z,95.74
2023-03-10T01:58:17.202Z,94.71
2023-03-10T01:59:17.202Z,95.84
2023-03-10T02:00:17.210Z,95.64
2023-03-10T02:01:17.311Z,95.02
2023-03-10T02:02:17.292Z,95.12
2023-03-10T02:03:17.151Z,95.64
2023-03-10T02:04:17.153Z,95.94
2023-03-10T02:05:17.146Z,95.53
2023-03-10T02:06:17.112Z,95.53
2023-03-10T02:07:17.118Z,95.32
2023-03-10T02:08:17.095Z,95.53
2023-03-10T02:09:18.082Z,95.94
2023-03-10T02:10:17.084Z,95.32
2023-03-10T02:11:17.071Z,95.84
2023-03-10T02:12:17.065Z,95.74
2023-03-10T02:13:17.041Z,96.15
2023-03-10T02:14:17.035Z,95.94
2023-03-10T02:15:17.036Z,95.02
2023-03-10T02:16:17.062Z,95.23
2023-03-10T02:17:17.028Z,96.09
2023-03-10T02:18:17.016Z,96.45
2023-03-10T02:19:16.990Z,96.60
2023-03-10T02:20:16.963Z,96.91
2023-03-10T02:21:16.971Z,96.81
2023-03-10T02:22:16.941Z,97.63
2023-03-10T02:23:16.974Z,97.22
2023-03-10T02:24:16.943Z,97.32
2023-03-10T02:25:16.914Z,97.42
2023-03-10T02:26:16.903Z,97.07
2023-03-10T02:27:16.901Z,97.48
2023-03-10T02:28:16.893Z,97.83
2023-03-10T02:29:16.886Z,97.83
2023-03-10T02:30:16.865Z,98.45
2023-03-10T02:31:16.878Z,98.96
2023-03-10T02:32:16.855Z,98.96
2023-03-10T02:33:16.849Z,99.99
2023-03-10T02:34:16.843Z,99.68
2023-03-10T02:35:16.823Z,98.96
2023-03-10T02:36:16.799Z,98.96
2023-03-10T02:37:16.813Z,98.76
2023-03-10T02:38:16.800Z,99.07
2023-03-10T02:39:16.763Z,98.76
2023-03-10T02:40:16.766Z,98.55
2023-03-10T02:41:16.750Z,99.79
2023-03-10T02:42:16.749Z,99.07
2023-03-10T02:43:16.764Z,98.86
2023-03-10T02:44:16.721Z,98.45
2023-03-10T02:45:16.716Z,98.76
2023-03-10T02:46:16.762Z,99.27
2023-03-10T02:47:16.680Z,99.27
2023-03-10T02:48:16.676Z,99.79
2023-03-10T02:49:16.688Z,99.27
2023-03-10T02:50:16.645Z,99.17
2023-03-10T02:51:16.636Z,99.07
2023-03-10T02:52:16.643Z,98.86
2023-03-10T02:53:16.615Z,99.17
2023-03-10T02:54:16.630Z,98.96
2023-03-10T02:55:16.595Z,99.68
2023-03-10T02:56:16.580Z,99.63
2023-03-10T02:57:16.588Z,99.68
2023-03-10T02:58:16.565Z,99.68
2023-03-10T02:59:16.561Z,99.48
2023-03-10T03:00:16.552Z,99.48
2023-03-10T03:01:16.614Z,99.48
2023-03-10T03:02:16.513Z,99.68
2023-03-10T03:03:16.529Z,99.48
2023-03-10T03:04:16.579Z,99.79
2023-03-10T03:05:16.490Z,99.79
2023-03-10T03:06:16.473Z,99.58
2023-03-10T03:07:16.477Z,99.79
2023-03-10T03:08:16.468Z,99.68
2023-03-10T03:09:16.456Z,99.99
2023-03-10T03:10:16.462Z,99.99
2023-03-10T03:11:16.441Z,99.99
2023-03-10T03:12:16.425Z,99.99
2023-03-10T03:13:16.424Z,99.99
2023-03-10T03:14:19.385Z,99.99
2023-03-10T03:15:17.396Z,99.99
2023-03-10T03:16:16.454Z,99.99
2023-03-10T03:17:16.361Z,99.99
2023-03-10T03:18:16.353Z,99.99
2023-03-10T03:19:16.345Z,99.99
2023-03-10T03:20:16.329Z,99.99
2023-03-10T03:21:16.331Z,99.99
2023-03-10T03:22:16.298Z,99.99
2023-03-10T03:23:16.298Z,99.99
2023-03-10T03:24:16.301Z,99.99
2023-03-10T03:25:16.270Z,99.99
2023-03-10T03:26:16.250Z,99.99
2023-03-10T03:27:16.247Z,99.99
2023-03-10T03:28:16.269Z,99.99
2023-03-10T03:29:16.222Z,99.99
2023-03-10T03:30:16.233Z,99.99
2023-03-10T03:31:16.206Z,99.99
2023-03-10T03:32:16.212Z,99.99
2023-03-10T03:33:16.183Z,99.99
2023-03-10T03:34:16.186Z,99.99
2023-03-10T03:35:16.153Z,99.99
2023-03-10T03:36:16.153Z,99.99
2023-03-10T03:37:16.129Z,99.99
2023-03-10T03:38:16.137Z,99.99
2023-03-10T03:39:16.144Z,99.99
2023-03-10T03:40:16.097Z,99.99
2023-03-10T03:41:16.096Z,99.99
2023-03-10T03:42:16.089Z,99.99
2023-03-10T03:43:16.075Z,99.99
2023-03-10T03:44:16.058Z,99.99
2023-03-10T03:45:16.056Z,99.99
2023-03-10T03:46:16.047Z,99.99
2023-03-10T03:47:16.027Z,99.99
2023-03-10T03:48:16.008Z,99.99
2023-03-10T03:49:15.994Z,99.99
2023-03-10T03:50:16.001Z,99.99
2023-03-10T03:51:15.986Z,99.99
2023-03-10T03:52:15.978Z,99.99
2023-03-10T03:53:15.969Z,99.99
2023-03-10T03:54:15.934Z,99.99
2023-03-10T03:55:15.957Z,99.99
2023-03-10T03:56:15.948Z,99.99
2023-03-10T03:57:15.924Z,99.99
2023-03-10T03:58:15.895Z,99.99
2023-03-10T03:59:15.888Z,99.99
2023-03-10T04:00:15.895Z,99.99
2023-03-10T04:01:15.878Z,99.99
2023-03-10T04:02:15.923Z,99.99
2023-03-10T04:03:15.865Z,99.99
2023-03-10T04:04:15.822Z,99.99
2023-03-10T04:05:15.831Z,99.99
2023-03-10T04:06:15.804Z,99.99
2023-03-10T04:07:15.793Z,99.99
2023-03-10T04:08:15.792Z,99.99
2023-03-10T04:09:15.787Z,99.99
2023-03-10T04:10:15.770Z,99.99
2023-03-10T04:11:15.767Z,99.99
2023-03-10T04:12:15.746Z,99.99
2023-03-10T04:13:15.740Z,99.99
2023-03-10T04:14:15.744Z,99.99
2023-03-10T04:15:15.724Z,99.99
2023-03-10T04:16:15.723Z,99.99
2023-03-10T04:17:15.695Z,99.99
2023-03-10T04:18:15.698Z,99.99
2023-03-10T04:19:15.692Z,99.99
2023-03-10T04:20:15.679Z,99.99
2023-03-10T04:21:15.671Z,99.99
2023-03-10T04:22:15.640Z,99.99
2023-03-10T04:23:15.662Z,99.99
2023-03-10T04:24:15.609Z,99.99
2023-03-10T04:25:15.635Z,99.99
2023-03-10T04:26:15.626Z,99.99
2023-03-10T04:27:15.586Z,99.99
2023-03-10T04:28:15.564Z,99.99
2023-03-10T04:29:16.584Z,99.99
2023-03-10T04:30:15.563Z,99.99
2023-03-10T04:31:15.694Z,99.99
2023-03-10T04:32:15.603Z,99.99
2023-03-10T04:33:15.523Z,99.99
2023-03-10T04:34:15.521Z,99.99
2023-03-10T04:35:15.504Z,99.99
2023-03-10T04:36:15.568Z,99.99
2023-03-10T04:37:15.500Z,99.99
2023-03-10T04:38:15.488Z,99.99
2023-03-10T04:39:15.469Z,99.99
2023-03-10T04:40:15.442Z,99.99
2023-03-10T04:41:15.484Z,99.99
2023-03-10T04:42:15.448Z,99.99
2023-03-10T04:43:15.428Z,99.99
2023-03-10T04:44:29.940Z,99.99
2023-03-10T04:45:17.390Z,99.99
2023-03-10T04:46:15.421Z,99.99
2023-03-10T04:47:15.364Z,99.99
2023-03-10T04:48:15.373Z,99.99
2023-03-10T04:49:15.343Z,99.99
2023-03-10T04:50:15.353Z,99.99
2023-03-10T04:51:15.333Z,99.99
2023-03-10T04:52:15.302Z,99.99
2023-03-10T04:53:15.312Z,99.99
2023-03-10T04:54:15.296Z,99.99
2023-03-10T04:55:15.300Z,99.99
2023-03-10T04:56:15.312Z,99.99
2023-03-10T04:57:15.266Z,99.99
2023-03-10T04:58:16.272Z,99.99
2023-03-10T04:59:15.251Z,99.99
2023-03-10T05:00:15.327Z,99.99
2023-03-10T05:01:15.291Z,99.99
2023-03-10T05:02:15.256Z,99.99
2023-03-10T05:03:15.203Z,99.99
2023-03-10T05:04:15.269Z,99.99
2023-03-10T05:05:15.156Z,99.99
2023-03-10T05:06:15.152Z,99.99
2023-03-10T05:07:15.146Z,99.99
2023-03-10T05:08:15.125Z,99.99
2023-03-10T05:09:15.118Z,99.99
2023-03-10T05:10:15.093Z,99.99
2023-03-10T05:11:15.088Z,99.99
2023-03-10T05:12:15.102Z,99.99
2023-03-10T05:13:15.072Z,99.99
2023-03-10T05:14:15.046Z,99.99
2023-03-10T05:15:15.050Z,99.99
2023-03-10T05:16:15.059Z,99.99
2023-03-10T05:17:15.018Z,99.99
2023-03-10T05:18:15.009Z,99.99
2023-03-10T05:19:15.001Z,99.99
2023-03-10T05:20:14.996Z,99.99
2023-03-10T05:21:14.973Z,99.99
2023-03-10T05:22:14.970Z,99.99
2023-03-10T05:23:14.958Z,99.99
2023-03-10T05:24:14.976Z,99.99
2023-03-10T05:25:14.944Z,99.99
2023-03-10T05:26:14.909Z,99.99
2023-03-10T05:27:14.929Z,99.99
2023-03-10T05:28:14.899Z,99.99
2023-03-10T05:29:14.880Z,99.99
2023-03-10T05:30:14.882Z,99.99
2023-03-10T05:31:14.953Z,99.99
2023-03-10T05:32:14.923Z,99.99
2023-03-10T05:33:14.838Z,99.99
2023-03-10T05:34:14.824Z,99.99
2023-03-10T05:35:14.804Z,99.99
2023-03-10T05:36:14.987Z,99.99
2023-03-10T05:37:14.795Z,99.99
2023-03-10T05:38:14.782Z,99.99
2023-03-10T05:39:14.774Z,99.99
2023-03-10T05:40:14.776Z,99.99
2023-03-10T05:41:14.758Z,99.99
2023-03-10T05:42:14.763Z,99.99
2023-03-10T05:43:17.331Z,99.99
2023-03-10T05:44:14.721Z,99.99
2023-03-10T05:45:14.717Z,99.99
2023-03-10T05:46:14.752Z,99.99
2023-03-10T05:47:14.697Z,99.99
2023-03-10T05:48:14.693Z,99.99
2023-03-10T05:49:14.663Z,99.99
2023-03-10T05:50:14.667Z,99.99
2023-03-10T05:51:14.652Z,99.99
2023-03-10T05:52:14.656Z,99.99
2023-03-10T05:53:14.623Z,99.99
2023-03-10T05:54:14.613Z,99.99
2023-03-10T05:55:14.625Z,99.99
2023-03-10T05:56:14.609Z,99.99
2023-03-10T05:57:14.593Z,99.99
2023-03-10T05:58:14.569Z,99.99
2023-03-10T05:59:14.558Z,99.99
2023-03-10T06:00:14.555Z,99.99
2023-03-10T06:01:14.566Z,99.99
2023-03-10T06:02:14.539Z,99.99
2023-03-10T06:03:14.591Z,99.99
2023-03-10T06:04:14.609Z,99.99
2023-03-10T06:05:14.513Z,99.99
2023-03-10T06:06:14.500Z,99.99
2023-03-10T06:07:14.477Z,99.99
2023-03-10T06:08:14.471Z,99.99
2023-03-10T06:09:14.455Z,99.99
2023-03-10T06:10:14.462Z,99.99
2023-03-10T06:11:14.448Z,99.99
2023-03-10T06:12:14.452Z,99.99
2023-03-10T06:13:14.416Z,99.99
2023-03-10T06:14:14.401Z,99.99
2023-03-10T06:15:14.400Z,99.99
2023-03-10T06:16:14.445Z,99.99
2023-03-10T06:17:14.382Z,99.99
2023-03-10T06:18:14.363Z,99.99
2023-03-10T06:19:14.351Z,99.99
2023-03-10T06:20:14.349Z,99.99
2023-03-10T06:21:14.341Z,99.99
2023-03-10T06:22:14.334Z,99.99
2023-03-10T06:23:14.294Z,99.79
2023-03-10T06:24:14.297Z,99.99
2023-03-10T06:25:14.278Z,99.48
2023-03-10T06:26:14.289Z,99.68
2023-03-10T06:27:14.277Z,99.84
2023-03-10T06:28:14.236Z,99.89
2023-03-10T06:29:14.227Z,99.68
2023-03-10T06:30:14.218Z,99.38
2023-03-10T06:31:14.338Z,99.07
2023-03-10T06:32:14.279Z,98.76
2023-03-10T06:33:14.189Z,98.55
2023-03-10T06:34:14.169Z,98.76
2023-03-10T06:35:14.157Z,98.86
2023-03-10T06:36:14.253Z,98.76
2023-03-10T06:37:14.140Z,98.76
2023-03-10T06:38:14.136Z,98.96
2023-03-10T06:39:14.142Z,98.76
2023-03-10T06:40:14.120Z,98.45
2023-03-10T06:41:14.104Z,98.61
2023-03-10T06:42:15.092Z,98.96
2023-03-10T06:43:14.079Z,98.66
2023-03-10T06:44:14.063Z,98.20
2023-03-10T06:45:14.069Z,98.04
2023-03-10T06:46:14.094Z,97.94
2023-03-10T06:47:14.048Z,97.99
2023-03-10T06:48:14.035Z,97.89
2023-03-10T06:49:14.028Z,97.58
2023-03-10T06:50:14.006Z,97.79
2023-03-10T06:51:14.041Z,97.58
2023-03-10T06:52:13.975Z,97.48
2023-03-10T06:53:13.964Z,97.58
2023-03-10T06:54:13.952Z,97.83
2023-03-10T06:55:13.967Z,97.73
2023-03-10T06:56:13.926Z,97.69
2023-03-10T06:57:13.936Z,97.58
2023-03-10T06:58:13.927Z,97.53
2023-03-10T06:59:13.888Z,97.22
2023-03-10T07:00:13.896Z,97.07
2023-03-10T07:01:13.903Z,97.17
2023-03-10T07:02:13.862Z,97.48
2023-03-10T07:03:13.864Z,97.03
2023-03-10T07:04:13.869Z,97.13
2023-03-10T07:05:13.853Z,97.33
2023-03-10T07:06:13.828Z,97.69
2023-03-10T07:07:13.798Z,97.54
2023-03-10T07:08:13.813Z,97.44
2023-03-10T07:09:13.817Z,96.72
2023-03-10T07:10:13.770Z,96.72
2023-03-10T07:11:13.758Z,97.03
2023-03-10T07:12:13.763Z,97.69
2023-03-10T07:13:13.739Z,97.23
2023-03-10T07:14:13.711Z,97.13
2023-03-10T07:15:13.713Z,97.48
2023-03-10T07:16:13.710Z,97.33
2023-03-10T07:17:13.719Z,97.13
2023-03-10T07:18:13.707Z,97.69
2023-03-10T07:19:13.682Z,97.38
2023-03-10T07:20:13.654Z,97.17
2023-03-10T07:21:13.668Z,97.38
2023-03-10T07:22:13.635Z,97.28
2023-03-10T07:23:13.684Z,97.28
2023-03-10T07:24:13.604Z,97.28
2023-03-10T07:25:13.603Z,97.48
2023-03-10T07:26:13.593Z,97.28
2023-03-10T07:27:13.592Z,97.79
2023-03-10T07:28:13.573Z,97.79
2023-03-10T07:29:13.569Z,97.89
2023-03-10T07:30:13.540Z,98.20
2023-03-10T07:31:13.624Z,98.41
2023-03-10T07:32:13.523Z,98.76
2023-03-10T07:33:13.520Z,99.95
2023-03-10T07:34:13.491Z,99.38
2023-03-10T07:35:13.500Z,99.95
2023-03-10T07:36:13.581Z,99.99
2023-03-10T07:37:13.559Z,99.99
2023-03-10T07:38:14.456Z,99.99
2023-03-10T07:39:13.450Z,99.99
2023-03-10T07:40:13.418Z,99.99
2023-03-10T07:41:13.456Z,99.99
2023-03-10T07:42:13.417Z,99.99
2023-03-10T07:43:13.392Z,99.99
2023-03-10T07:44:13.388Z,99.99
2023-03-10T07:45:13.367Z,99.99
2023-03-10T07:46:13.438Z,99.99
2023-03-10T07:47:13.373Z,99.99
2023-03-10T07:48:13.338Z,99.99
2023-03-10T07:49:13.321Z,99.99
2023-03-10T07:50:13.350Z,99.99
2023-03-10T07:51:13.315Z,99.99
2023-03-10T07:52:13.284Z,99.99
2023-03-10T07:53:13.292Z,99.99
2023-03-10T07:54:13.295Z,99.99
2023-03-10T07:55:13.250Z,99.99
2023-03-10T07:56:13.245Z,99.99
2023-03-10T07:57:13.257Z,99.99
2023-03-10T07:58:13.220Z,99.99
2023-03-10T07:59:13.254Z,99.99
2023-03-10T08:00:13.207Z,99.99
2023-03-10T08:01:13.237Z,99.99
2023-03-10T08:02:13.189Z,99.99
2023-03-10T08:03:13.174Z,99.99
2023-03-10T08:04:13.304Z,99.99
2023-03-10T08:05:13.232Z,99.99
2023-03-10T08:06:13.156Z,99.99
2023-03-10T08:07:13.141Z,99.99
2023-03-10T08:08:13.116Z,99.99
2023-03-10T08:09:13.116Z,99.99
2023-03-10T08:10:13.072Z,99.99
2023-03-10T08:11:14.083Z,99.99
2023-03-10T08:12:13.092Z,99.99
2023-03-10T08:13:13.101Z,99.99
2023-03-10T08:14:13.056Z,99.99
2023-03-10T08:15:13.036Z,99.99
2023-03-10T08:16:13.073Z,99.99
2023-03-10T08:17:13.023Z,99.99
2023-03-10T08:18:13.023Z,99.99
2023-03-10T08:19:12.989Z,99.99
2023-03-10T08:20:12.984Z,99.99
2023-03-10T08:21:12.992Z,99.99
2023-03-10T08:22:12.971Z,99.85
2023-03-10T08:23:12.962Z,99.65
2023-03-10T08:24:12.938Z,99.54
2023-03-10T08:25:12.917Z,99.34
2023-03-10T08:26:12.906Z,99.65
2023-03-10T08:27:12.919Z,99.99
2023-03-10T08:28:12.899Z,99.75
2023-03-10T08:29:12.866Z,99.49
2023-03-10T08:30:12.870Z,99.90
2023-03-10T08:31:12.903Z,99.99
2023-03-10T08:32:12.870Z,99.79
2023-03-10T08:33:12.824Z,99.99
2023-03-10T08:34:12.814Z,99.59
2023-03-10T08:35:12.814Z,99.79
2023-03-10T08:36:12.866Z,99.99
2023-03-10T08:37:12.794Z,99.99
2023-03-10T08:38:12.777Z,99.99
2023-03-10T08:39:12.774Z,99.99
2023-03-10T08:40:12.744Z,99.95
2023-03-10T08:41:12.741Z,99.59
2023-03-10T08:42:12.748Z,99.99
2023-03-10T08:43:12.721Z,99.95
2023-03-10T08:44:12.701Z,99.99
2023-03-10T08:45:12.718Z,99.99
2023-03-10T08:46:12.749Z,99.99
2023-03-10T08:47:12.671Z,99.99
2023-03-10T08:48:12.683Z,99.99
2023-03-10T08:49:12.643Z,99.99
2023-03-10T08:50:12.706Z,99.99
2023-03-10T08:51:15.631Z,99.99
2023-03-10T08:52:13.626Z,99.91
2023-03-10T08:53:12.636Z,99.60
2023-03-10T08:54:12.603Z,99.60
2023-03-10T08:55:12.565Z,98.58
2023-03-10T08:56:13.592Z,98.68
2023-03-10T08:57:12.564Z,98.43
2023-03-10T08:58:12.565Z,97.81
2023-03-10T08:59:12.528Z,97.40
2023-03-10T09:00:12.580Z,97.87
2023-03-10T09:01:13.868Z,97.21
2023-03-10T09:02:13.601Z,95.88
2023-03-10T09:03:15.361Z,95.53
2023-03-10T09:04:13.499Z,94.20
2023-03-10T09:05:12.480Z,94.36
2023-03-10T09:06:12.499Z,93.91
2023-03-10T09:07:12.452Z,94.98
2023-03-10T09:08:12.425Z,93.15
2023-03-10T09:09:12.453Z,92.59
2023-03-10T09:10:12.395Z,92.80
2023-03-10T09:11:12.421Z,90.71
2023-03-10T09:12:12.407Z,90.96
2023-03-10T09:13:14.390Z,91.22
2023-03-10T09:14:16.398Z,90.04
2023-03-10T09:15:12.356Z,90.10
2023-03-10T09:16:12.385Z,90.41
2023-03-10T09:17:12.359Z,90.31
2023-03-10T09:18:12.328Z,89.32
2023-03-10T09:19:12.320Z,89.69
2023-03-10T09:20:12.361Z,88.82
2023-03-10T09:21:12.282Z,89.58
2023-03-10T09:22:12.297Z,90.45
2023-03-10T09:23:12.267Z,90.55
2023-03-10T09:24:12.239Z,87.84
2023-03-10T09:25:12.247Z,87.84
2023-03-10T09:26:12.245Z,89.11
2023-03-10T09:27:12.228Z,87.88
2023-03-10T09:28:12.223Z,88.53
2023-03-10T09:29:12.222Z,90.17
2023-03-10T09:30:12.185Z,90.27
2023-03-10T09:31:14.579Z,90.58
2023-03-10T09:32:13.318Z,90.88
2023-03-10T09:33:12.170Z,90.47
2023-03-10T09:34:12.141Z,90.53
2023-03-10T09:35:12.120Z,90.43
2023-03-10T09:36:12.175Z,90.12
2023-03-10T09:37:12.113Z,89.51
2023-03-10T09:38:12.128Z,90.53
2023-03-10T09:39:12.099Z,88.53
2023-03-10T09:40:12.070Z,90.74
2023-03-10T09:41:12.081Z,89.35
2023-03-10T09:42:13.230Z,89.31
2023-03-10T09:43:12.059Z,89.86
2023-03-10T09:44:12.023Z,89.20
2023-03-10T09:45:12.016Z,90.23
2023-03-10T09:46:12.049Z,90.74
2023-03-10T09:47:11.991Z,89.20
2023-03-10T09:48:11.995Z,89.92
2023-03-10T09:49:11.958Z,89.00
2023-03-10T09:50:11.988Z,89.20
2023-03-10T09:51:11.956Z,88.29
2023-03-10T09:52:11.933Z,87.67
2023-03-10T09:53:11.918Z,88.18
2023-03-10T09:54:11.914Z,88.45
2023-03-10T09:55:13.246Z,88.31
2023-03-10T09:56:12.896Z,86.71
2023-03-10T09:57:11.874Z,86.41
2023-03-10T09:58:11.870Z,87.23
2023-03-10T09:59:11.850Z,87.63
2023-03-10T10:00:11.834Z,86.57
2023-03-10T10:01:11.843Z,86.53
2023-03-10T10:02:11.812Z,87.08
2023-03-10T10:03:11.864Z,87.35
2023-03-10T10:04:11.937Z,86.12
2023-03-10T10:05:11.850Z,84.59
2023-03-10T10:06:11.776Z,84.55
2023-03-10T10:07:11.768Z,84.66
2023-03-10T10:08:11.756Z,85.88
2023-03-10T10:09:11.744Z,84.75
2023-03-10T10:10:11.737Z,85.47
2023-03-10T10:11:11.737Z,85.30
2023-03-10T10:12:11.734Z,85.41
2023-03-10T10:13:11.697Z,85.61
2023-03-10T10:14:15.882Z,85.55
2023-03-10T10:15:13.683Z,86.98
2023-03-10T10:16:28.282Z,85.24
2023-03-10T10:17:13.752Z,86.47
2023-03-10T10:18:18.859Z,86.57
2023-03-10T10:19:13.745Z,85.45
2023-03-10T10:20:11.612Z,86.10
2023-03-10T10:21:11.616Z,87.12
2023-03-10T10:22:11.615Z,87.23
2023-03-10T10:23:11.596Z,87.32
2023-03-10T10:24:11.582Z,87.06
2023-03-10T10:25:11.562Z,86.76
2023-03-10T10:26:11.547Z,87.47
2023-03-10T10:27:11.543Z,87.57
2023-03-10T10:28:11.569Z,88.04
2023-03-10T10:29:11.508Z,88.24
2023-03-10T10:30:11.535Z,88.65
2023-03-10T10:31:11.520Z,88.04
2023-03-10T10:32:11.553Z,88.76
2023-03-10T10:33:11.490Z,89.67
2023-03-10T10:34:13.121Z,89.26
2023-03-10T10:35:11.473Z,88.82
2023-03-10T10:36:11.469Z,89.02
2023-03-10T10:37:11.445Z,88.71
2023-03-10T10:38:11.438Z,89.73
2023-03-10T10:39:12.734Z,90.20
2023-03-10T10:40:12.396Z,88.78
2023-03-10T10:41:11.449Z,88.93
2023-03-10T10:42:11.389Z,87.61
2023-03-10T10:43:11.360Z,88.02
2023-03-10T10:44:11.370Z,87.71
2023-03-10T10:45:11.343Z,88.32
2023-03-10T10:46:11.404Z,88.84
2023-03-10T10:47:11.356Z,87.96
2023-03-10T10:48:11.323Z,88.92
2023-03-10T10:49:11.312Z,90.23
2023-03-10T10:50:11.312Z,90.33
2023-03-10T10:51:11.326Z,91.15
2023-03-10T10:52:11.284Z,91.70
2023-03-10T10:53:11.275Z,92.93
2023-03-10T10:54:11.272Z,92.97
2023-03-10T10:55:11.236Z,93.28
2023-03-10T10:56:11.231Z,93.18
2023-03-10T10:57:11.251Z,93.43
2023-03-10T10:58:11.199Z,93.77
2023-03-10T10:59:11.223Z,93.82
2023-03-10T11:00:11.187Z,94.12
2023-03-10T11:01:11.231Z,94.33
2023-03-10T11:02:11.180Z,93.82
2023-03-10T11:03:11.147Z,93.82
2023-03-10T11:04:11.133Z,93.82
2023-03-10T11:05:11.113Z,93.71
2023-03-10T11:06:12.113Z,93.51
2023-03-10T11:07:11.095Z,94.02
2023-03-10T11:08:11.104Z,93.92
2023-03-10T11:09:12.422Z,94.90
2023-03-10T11:10:11.070Z,95.05
2023-03-10T11:11:11.055Z,93.77
2023-03-10T11:12:11.071Z,94.08
2023-03-10T11:13:11.045Z,93.57
2023-03-10T11:14:11.017Z,93.12
2023-03-10T11:15:11.024Z,92.75
2023-03-10T11:16:11.041Z,92.97
2023-03-10T11:17:11.010Z,91.03
2023-03-10T11:18:10.995Z,92.01
2023-03-10T11:19:10.974Z,91.46
2023-03-10T11:20:10.969Z,91.20
2023-03-10T11:21:10.957Z,89.84
2023-03-10T11:22:10.941Z,90.61
2023-03-10T11:23:10.909Z,87.98
2023-03-10T11:24:10.910Z,86.45
2023-03-10T11:25:10.906Z,87.06
2023-03-10T11:26:10.876Z,86.35
2023-03-10T11:27:10.905Z,87.12
2023-03-10T11:28:10.891Z,87.96
2023-03-10T11:29:10.927Z,85.06
2023-03-10T11:30:10.860Z,85.60
2023-03-10T11:31:10.908Z,83.36
2023-03-10T11:32:10.876Z,84.38
2023-03-10T11:33:10.816Z,83.13
2023-03-10T11:34:10.821Z,83.31
2023-03-10T11:35:10.792Z,83.11
2023-03-10T11:36:10.907Z,84.74
2023-03-10T11:37:10.791Z,84.84
2023-03-10T11:38:10.777Z,84.94
2023-03-10T11:39:10.775Z,85.68
2023-03-10T11:40:10.744Z,84.52
2023-03-10T11:41:10.741Z,82.68
2023-03-10T11:42:10.722Z,82.62
2023-03-10T11:43:10.735Z,81.54
2023-03-10T11:44:10.690Z,80.42
2023-03-10T11:45:10.700Z,79.75
2023-03-10T11:46:10.701Z,80.97
2023-03-10T11:47:10.712Z,79.99
2023-03-10T11:48:10.658Z,80.60
2023-03-10T11:49:10.644Z,80.22
2023-03-10T11:50:10.632Z,80.22
2023-03-10T11:51:10.611Z,79.64
2023-03-10T11:52:10.604Z,79.24
2023-03-10T11:53:10.596Z,79.41
2023-03-10T11:54:10.578Z,77.87
2023-03-10T11:55:10.623Z,77.87
2023-03-10T11:56:10.568Z,77.47
2023-03-10T11:57:10.586Z,77.84
2023-03-10T11:58:10.563Z,76.07
2023-03-10T11:59:10.541Z,75.16
2023-03-10T12:00:10.510Z,77.70
2023-03-10T12:01:10.520Z,75.87
2023-03-10T12:02:10.527Z,77.60
2023-03-10T12:03:10.520Z,76.75
2023-03-10T12:04:10.491Z,76.75
2023-03-10T12:05:10.480Z,76.37
2023-03-10T12:06:10.464Z,75.73
2023-03-10T12:07:10.464Z,74.92
2023-03-10T12:08:10.445Z,74.95
2023-03-10T12:09:10.438Z,73.83
2023-03-10T12:10:10.460Z,74.34
2023-03-10T12:11:10.411Z,73.80
2023-03-10T12:12:10.401Z,74.31
2023-03-10T12:13:10.424Z,74.98
2023-03-10T12:14:10.406Z,72.82
2023-03-10T12:15:10.389Z,71.94
2023-03-10T12:16:10.372Z,72.78
2023-03-10T12:17:10.345Z,73.60
2023-03-10T12:18:10.352Z,75.23
2023-03-10T12:19:10.328Z,77.13
2023-03-10T12:20:10.373Z,77.26
2023-03-10T12:21:10.317Z,77.78
2023-03-10T12:22:10.317Z,79.44
2023-03-10T12:23:10.284Z,80.02
2023-03-10T12:24:10.261Z,79.71
2023-03-10T12:25:10.278Z,78.59
2023-03-10T12:26:10.269Z,79.44
2023-03-10T12:27:10.264Z,79.20
2023-03-10T12:28:10.245Z,79.79
2023-03-10T12:29:10.224Z,82.17
2023-03-10T12:30:10.224Z,82.27
2023-03-10T12:31:10.259Z,82.84
2023-03-10T12:32:10.235Z,82.88
2023-03-10T12:33:10.196Z,83.56
2023-03-10T12:34:10.172Z,83.15
2023-03-10T12:35:10.163Z,82.07
2023-03-10T12:36:10.167Z,82.71
2023-03-10T12:37:10.170Z,83.12
2023-03-10T12:38:10.123Z,83.84
2023-03-10T12:39:10.101Z,82.82
2023-03-10T12:40:10.088Z,83.87
2023-03-10T12:41:10.114Z,83.63
2023-03-10T12:42:10.077Z,82.41
2023-03-10T12:43:10.065Z,82.96
2023-03-10T12:44:10.067Z,84.14
2023-03-10T12:45:10.090Z,82.86
2023-03-10T12:46:10.058Z,83.37
2023-03-10T12:47:10.091Z,83.23
2023-03-10T12:48:10.007Z,82.68
2023-03-10T12:49:10.031Z,82.23
2023-03-10T12:50:09.983Z,81.62
2023-03-10T12:51:09.985Z,82.33
2023-03-10T12:52:09.982Z,82.03